CHH7520 ZPJH-ZPPP
Flight info
| Callsign | CHH7520 |
|---|---|
| Flight time | 0h 39m |
| Altitude | 22600 |
| Route | BIDRU A581 ELASU |
| Aircraft | B738/M-SDE2E3FGHIRWXY/LB1 |
Departure
| Time | 2026-05-07 09:47 |
|---|---|
| Airport | Xishuangbanna Gasa International Airport (ZPJH) |
Arrival
| Time | 2026-05-07 10:27 |
|---|---|
| Airport | Kunming Changshui International Airport (ZPPP) |
| Time | Latitude | Longitude | Altitude | Speed | Heading |
|---|---|---|---|---|---|
| 2026-05-07 09:33 | 21.97734 | 100.76465 | 1832 ft | 0 kts | 69° |
| 2026-05-07 09:39 | 21.97730 | 100.76455 | 1827 ft | 4 kts | 68° |
| 2026-05-07 09:40 | 21.97720 | 100.76428 | 1829 ft | 4 kts | 70° |
| 2026-05-07 09:40 | 21.97715 | 100.76403 | 1830 ft | 4 kts | 113° |
| 2026-05-07 09:40 | 21.97723 | 100.76392 | 1831 ft | 4 kts | 142° |
| 2026-05-07 09:40 | 21.97744 | 100.76381 | 1831 ft | 2 kts | 160° |
| 2026-05-07 09:41 | 21.97745 | 100.76381 | 1831 ft | 0 kts | 160° |
| 2026-05-07 09:42 | 21.97740 | 100.76383 | 1831 ft | 2 kts | 159° |
| 2026-05-07 09:42 | 21.97713 | 100.76394 | 1831 ft | 6 kts | 160° |
| 2026-05-07 09:42 | 21.97660 | 100.76415 | 1829 ft | 10 kts | 160° |
| 2026-05-07 09:43 | 21.97584 | 100.76429 | 1830 ft | 12 kts | 199° |
| 2026-05-07 09:43 | 21.97509 | 100.76394 | 1829 ft | 14 kts | 163° |
| 2026-05-07 09:43 | 21.97413 | 100.76433 | 1832 ft | 16 kts | 161° |
| 2026-05-07 09:43 | 21.97298 | 100.76475 | 1829 ft | 18 kts | 161° |
| 2026-05-07 09:44 | 21.97173 | 100.76521 | 1831 ft | 19 kts | 161° |
| 2026-05-07 09:44 | 21.97053 | 100.76563 | 1831 ft | 14 kts | 162° |
| 2026-05-07 09:44 | 21.96980 | 100.76520 | 1826 ft | 13 kts | 246° |
| 2026-05-07 09:44 | 21.96936 | 100.76440 | 1830 ft | 13 kts | 201° |
| 2026-05-07 09:45 | 21.96852 | 100.76460 | 1830 ft | 13 kts | 160° |
| 2026-05-07 09:45 | 21.96756 | 100.76497 | 1831 ft | 17 kts | 161° |
| 2026-05-07 09:45 | 21.96629 | 100.76545 | 1831 ft | 22 kts | 161° |
| 2026-05-07 09:45 | 21.96504 | 100.76604 | 1829 ft | 11 kts | 139° |
| 2026-05-07 09:46 | 21.96440 | 100.76623 | 1826 ft | 9 kts | 213° |
| 2026-05-07 09:46 | 21.96439 | 100.76600 | 1826 ft | 3 kts | 311° |
| 2026-05-07 09:46 | 21.96467 | 100.76595 | 1828 ft | 6 kts | 2° |
| 2026-05-07 09:46 | 21.96523 | 100.76585 | 1830 ft | 10 kts | 338° |
| 2026-05-07 09:47 | 21.96727 | 100.76508 | 1830 ft | 65 kts | 340° |
| 2026-05-07 09:47 | 21.97376 | 100.76262 | 1829 ft | 131 kts | 340° |
| 2026-05-07 09:47 | 21.98390 | 100.75862 | 1977 ft | 170 kts | 339° |
| 2026-05-07 09:47 | 21.99543 | 100.75395 | 2541 ft | 186 kts | 339° |
| 2026-05-07 09:48 | 22.00773 | 100.74917 | 3345 ft | 189 kts | 340° |
| 2026-05-07 09:48 | 22.02047 | 100.74440 | 4028 ft | 204 kts | 343° |
| 2026-05-07 09:48 | 22.03518 | 100.74031 | 4242 ft | 231 kts | 346° |
| 2026-05-07 09:48 | 22.05171 | 100.73619 | 4444 ft | 257 kts | 347° |
| 2026-05-07 09:49 | 22.06989 | 100.73167 | 4831 ft | 275 kts | 346° |
| 2026-05-07 09:49 | 22.08863 | 100.72703 | 5711 ft | 276 kts | 349° |
| 2026-05-07 09:49 | 22.10766 | 100.72865 | 6614 ft | 280 kts | 20° |
| 2026-05-07 09:49 | 22.12521 | 100.73809 | 7430 ft | 285 kts | 26° |
| 2026-05-07 09:50 | 22.14262 | 100.74848 | 8196 ft | 289 kts | 27° |
| 2026-05-07 09:50 | 22.16033 | 100.75919 | 8960 ft | 294 kts | 27° |
| 2026-05-07 09:50 | 22.17806 | 100.76990 | 9878 ft | 292 kts | 26° |
| 2026-05-07 09:50 | 22.19619 | 100.78078 | 10363 ft | 307 kts | 26° |
| 2026-05-07 09:51 | 22.21571 | 100.79239 | 10530 ft | 333 kts | 26° |
| 2026-05-07 09:51 | 22.23670 | 100.80484 | 10695 ft | 356 kts | 26° |
| 2026-05-07 09:51 | 22.25903 | 100.81808 | 10936 ft | 374 kts | 26° |
| 2026-05-07 09:51 | 22.28205 | 100.83174 | 11434 ft | 381 kts | 26° |
| 2026-05-07 09:52 | 22.30540 | 100.84559 | 12083 ft | 384 kts | 26° |
| 2026-05-07 09:52 | 22.32858 | 100.85934 | 12658 ft | 388 kts | 26° |
| 2026-05-07 09:52 | 22.35243 | 100.87348 | 13252 ft | 392 kts | 26° |
| 2026-05-07 09:52 | 22.37645 | 100.88773 | 13831 ft | 395 kts | 26° |
| 2026-05-07 09:53 | 22.40069 | 100.90209 | 14322 ft | 400 kts | 26° |
| 2026-05-07 09:53 | 22.42517 | 100.91660 | 14816 ft | 403 kts | 26° |
| 2026-05-07 09:53 | 22.45013 | 100.93078 | 15298 ft | 406 kts | 20° |
| 2026-05-07 09:53 | 22.47738 | 100.93795 | 15732 ft | 405 kts | 3° |
| 2026-05-07 09:54 | 22.50551 | 100.94086 | 16186 ft | 409 kts | 2° |
| 2026-05-07 09:54 | 22.53396 | 100.94374 | 16654 ft | 412 kts | 2° |
| 2026-05-07 09:54 | 22.56261 | 100.94680 | 17152 ft | 415 kts | 2° |
| 2026-05-07 09:54 | 22.59155 | 100.95006 | 17597 ft | 419 kts | 2° |
| 2026-05-07 09:55 | 22.62070 | 100.95346 | 18037 ft | 423 kts | 2° |
| 2026-05-07 09:55 | 22.65017 | 100.95695 | 18416 ft | 428 kts | 2° |
| 2026-05-07 09:55 | 22.67985 | 100.96047 | 18825 ft | 430 kts | 2° |
| 2026-05-07 09:55 | 22.70957 | 100.96453 | 19245 ft | 434 kts | 8° |
| 2026-05-07 09:56 | 22.73820 | 100.97615 | 19593 ft | 446 kts | 26° |
| 2026-05-07 09:56 | 22.76501 | 100.99320 | 19995 ft | 449 kts | 28° |
| 2026-05-07 09:56 | 22.79180 | 101.01086 | 20364 ft | 452 kts | 28° |
| 2026-05-07 09:56 | 22.81871 | 101.02870 | 20717 ft | 455 kts | 28° |
| 2026-05-07 09:57 | 22.84583 | 101.04660 | 21082 ft | 458 kts | 28° |
| 2026-05-07 09:57 | 22.87320 | 101.06453 | 21422 ft | 461 kts | 28° |
| 2026-05-07 09:57 | 22.90045 | 101.08223 | 21737 ft | 464 kts | 28° |
| 2026-05-07 09:57 | 22.92827 | 101.10023 | 22074 ft | 467 kts | 27° |
| 2026-05-07 09:58 | 22.95623 | 101.11827 | 22430 ft | 469 kts | 27° |
| 2026-05-07 09:58 | 22.98483 | 101.13670 | 22459 ft | 476 kts | 27° |
| 2026-05-07 09:58 | 23.01308 | 101.15490 | 22471 ft | 481 kts | 27° |
| 2026-05-07 09:58 | 23.04203 | 101.17356 | 22470 ft | 487 kts | 28° |
| 2026-05-07 09:59 | 23.05398 | 101.18127 | 22473 ft | 488 kts | 28° |
| 2026-05-07 09:59 | 23.07928 | 101.19761 | 22474 ft | 492 kts | 28° |
| 2026-05-07 09:59 | 23.10878 | 101.21667 | 22469 ft | 496 kts | 28° |
| 2026-05-07 10:00 | 23.13854 | 101.23592 | 22461 ft | 499 kts | 28° |
| 2026-05-07 10:00 | 23.16848 | 101.25530 | 22466 ft | 502 kts | 28° |
| 2026-05-07 10:00 | 23.19855 | 101.27477 | 22461 ft | 505 kts | 28° |
| 2026-05-07 10:00 | 23.22884 | 101.29440 | 22462 ft | 506 kts | 28° |
| 2026-05-07 10:01 | 23.25911 | 101.31402 | 22454 ft | 507 kts | 28° |
| 2026-05-07 10:01 | 23.28936 | 101.33365 | 22449 ft | 507 kts | 28° |
| 2026-05-07 10:01 | 23.31963 | 101.35329 | 22454 ft | 506 kts | 28° |
| 2026-05-07 10:01 | 23.34993 | 101.37295 | 22464 ft | 507 kts | 28° |
| 2026-05-07 10:02 | 23.38018 | 101.39260 | 22445 ft | 507 kts | 28° |
| 2026-05-07 10:02 | 23.41047 | 101.41228 | 22456 ft | 506 kts | 28° |
| 2026-05-07 10:02 | 23.44071 | 101.43194 | 22460 ft | 506 kts | 28° |
| 2026-05-07 10:02 | 23.47088 | 101.45157 | 22452 ft | 506 kts | 28° |
| 2026-05-07 10:03 | 23.50112 | 101.47125 | 22460 ft | 506 kts | 28° |
| 2026-05-07 10:03 | 23.53130 | 101.49090 | 22432 ft | 505 kts | 28° |
| 2026-05-07 10:03 | 23.56142 | 101.51053 | 22470 ft | 504 kts | 28° |
| 2026-05-07 10:03 | 23.59162 | 101.53022 | 22453 ft | 505 kts | 28° |
| 2026-05-07 10:04 | 23.62182 | 101.54992 | 22452 ft | 506 kts | 28° |
| 2026-05-07 10:04 | 23.65198 | 101.56960 | 22431 ft | 506 kts | 28° |
| 2026-05-07 10:04 | 23.68185 | 101.58911 | 22455 ft | 505 kts | 28° |
| 2026-05-07 10:04 | 23.71202 | 101.60881 | 22453 ft | 505 kts | 28° |
| 2026-05-07 10:05 | 23.74220 | 101.62854 | 22457 ft | 505 kts | 28° |
| 2026-05-07 10:05 | 23.77232 | 101.64824 | 22143 ft | 502 kts | 28° |
| 2026-05-07 10:05 | 23.80191 | 101.66763 | 21632 ft | 491 kts | 28° |
| 2026-05-07 10:05 | 23.83084 | 101.68659 | 21119 ft | 479 kts | 28° |
| 2026-05-07 10:06 | 23.85906 | 101.70511 | 20649 ft | 467 kts | 28° |
| 2026-05-07 10:06 | 23.88658 | 101.72315 | 20189 ft | 458 kts | 28° |
| 2026-05-07 10:06 | 23.91373 | 101.74094 | 19739 ft | 451 kts | 27° |
| 2026-05-07 10:06 | 23.94036 | 101.75839 | 19329 ft | 443 kts | 27° |
| 2026-05-07 10:07 | 23.96650 | 101.77555 | 18991 ft | 433 kts | 28° |
| 2026-05-07 10:07 | 23.99163 | 101.79333 | 18650 ft | 429 kts | 37° |
| 2026-05-07 10:07 | 24.01292 | 101.81610 | 18334 ft | 425 kts | 44° |
| 2026-05-07 10:07 | 24.03285 | 101.83917 | 17985 ft | 422 kts | 44° |
| 2026-05-07 10:08 | 24.05299 | 101.86264 | 17607 ft | 424 kts | 45° |
| 2026-05-07 10:08 | 24.07318 | 101.88608 | 17235 ft | 423 kts | 44° |
| 2026-05-07 10:08 | 24.09335 | 101.90935 | 16865 ft | 418 kts | 44° |
| 2026-05-07 10:08 | 24.11334 | 101.93227 | 16494 ft | 414 kts | 44° |
| 2026-05-07 10:09 | 24.13318 | 101.95493 | 16132 ft | 410 kts | 44° |
| 2026-05-07 10:09 | 24.15287 | 101.97736 | 15784 ft | 407 kts | 44° |
| 2026-05-07 10:09 | 24.17244 | 101.99963 | 15441 ft | 404 kts | 44° |
| 2026-05-07 10:09 | 24.18530 | 102.01428 | 15208 ft | 403 kts | 44° |
| 2026-05-07 10:10 | 24.21114 | 102.04371 | 14723 ft | 399 kts | 44° |
| 2026-05-07 10:10 | 24.23032 | 102.06555 | 14403 ft | 396 kts | 44° |
| 2026-05-07 10:10 | 24.24935 | 102.08725 | 14079 ft | 394 kts | 44° |
| 2026-05-07 10:10 | 24.26828 | 102.10885 | 13747 ft | 392 kts | 45° |
| 2026-05-07 10:11 | 24.28069 | 102.12301 | 13694 ft | 384 kts | 45° |
| 2026-05-07 10:11 | 24.30483 | 102.15061 | 13586 ft | 366 kts | 45° |
| 2026-05-07 10:11 | 24.31638 | 102.16382 | 13537 ft | 358 kts | 45° |
| 2026-05-07 10:11 | 24.33333 | 102.18321 | 13448 ft | 345 kts | 45° |
| 2026-05-07 10:12 | 24.34968 | 102.20190 | 13381 ft | 334 kts | 44° |
| 2026-05-07 10:12 | 24.36549 | 102.21999 | 13264 ft | 324 kts | 44° |
| 2026-05-07 10:12 | 24.38102 | 102.23773 | 13007 ft | 321 kts | 44° |
| 2026-05-07 10:12 | 24.39647 | 102.25539 | 12671 ft | 321 kts | 45° |
| 2026-05-07 10:13 | 24.41187 | 102.27302 | 12386 ft | 319 kts | 45° |
| 2026-05-07 10:13 | 24.42721 | 102.29058 | 12138 ft | 316 kts | 45° |
| 2026-05-07 10:13 | 24.44238 | 102.30796 | 11895 ft | 315 kts | 45° |
| 2026-05-07 10:13 | 24.45763 | 102.32543 | 11875 ft | 320 kts | 45° |
| 2026-05-07 10:14 | 24.47304 | 102.34310 | 11878 ft | 321 kts | 45° |
| 2026-05-07 10:14 | 24.48840 | 102.36073 | 11840 ft | 316 kts | 45° |
| 2026-05-07 10:14 | 24.50349 | 102.37804 | 11861 ft | 314 kts | 45° |
| 2026-05-07 10:14 | 24.51850 | 102.39527 | 11993 ft | 318 kts | 45° |
| 2026-05-07 10:15 | 24.53381 | 102.41287 | 12020 ft | 319 kts | 45° |
| 2026-05-07 10:15 | 24.54918 | 102.43052 | 12021 ft | 320 kts | 45° |
| 2026-05-07 10:15 | 24.56458 | 102.44819 | 12019 ft | 320 kts | 44° |
| 2026-05-07 10:15 | 24.58120 | 102.46447 | 12025 ft | 320 kts | 38° |
| 2026-05-07 10:16 | 24.59870 | 102.47963 | 12020 ft | 321 kts | 36° |
| 2026-05-07 10:16 | 24.61625 | 102.49444 | 12001 ft | 315 kts | 36° |
| 2026-05-07 10:16 | 24.63348 | 102.50905 | 11942 ft | 312 kts | 36° |
| 2026-05-07 10:16 | 24.65049 | 102.52367 | 11757 ft | 309 kts | 37° |
| 2026-05-07 10:17 | 24.66738 | 102.53833 | 11375 ft | 310 kts | 37° |
| 2026-05-07 10:17 | 24.68428 | 102.55306 | 11061 ft | 309 kts | 37° |
| 2026-05-07 10:17 | 24.70101 | 102.56773 | 10774 ft | 307 kts | 37° |
| 2026-05-07 10:17 | 24.71765 | 102.58236 | 10472 ft | 306 kts | 38° |
| 2026-05-07 10:18 | 24.73425 | 102.59697 | 10209 ft | 304 kts | 38° |
| 2026-05-07 10:18 | 24.75057 | 102.61135 | 10098 ft | 296 kts | 38° |
| 2026-05-07 10:18 | 24.76648 | 102.62523 | 10028 ft | 286 kts | 37° |
| 2026-05-07 10:18 | 24.78186 | 102.63835 | 10049 ft | 272 kts | 37° |
| 2026-05-07 10:19 | 24.79628 | 102.65081 | 10041 ft | 255 kts | 37° |
| 2026-05-07 10:19 | 24.80983 | 102.66261 | 10040 ft | 245 kts | 37° |
| 2026-05-07 10:19 | 24.82313 | 102.67421 | 10042 ft | 244 kts | 37° |
| 2026-05-07 10:19 | 24.83633 | 102.68569 | 10044 ft | 246 kts | 37° |
| 2026-05-07 10:20 | 24.84972 | 102.69734 | 10042 ft | 242 kts | 37° |
| 2026-05-07 10:20 | 24.86253 | 102.70850 | 10054 ft | 227 kts | 37° |
| 2026-05-07 10:20 | 24.87474 | 102.71914 | 10059 ft | 223 kts | 36° |
| 2026-05-07 10:20 | 24.88689 | 102.72970 | 10068 ft | 222 kts | 36° |
| 2026-05-07 10:21 | 24.89899 | 102.74022 | 10088 ft | 222 kts | 37° |
| 2026-05-07 10:21 | 24.91116 | 102.75081 | 10085 ft | 224 kts | 37° |
| 2026-05-07 10:21 | 24.92322 | 102.76131 | 10099 ft | 216 kts | 36° |
| 2026-05-07 10:21 | 24.93447 | 102.77111 | 10104 ft | 192 kts | 37° |
| 2026-05-07 10:22 | 24.94429 | 102.77967 | 10131 ft | 173 kts | 36° |
| 2026-05-07 10:22 | 24.95385 | 102.78797 | 10122 ft | 174 kts | 37° |
| 2026-05-07 10:22 | 24.96328 | 102.79616 | 10126 ft | 172 kts | 36° |
| 2026-05-07 10:22 | 24.97266 | 102.80432 | 10127 ft | 172 kts | 37° |
| 2026-05-07 10:23 | 24.98204 | 102.81248 | 10140 ft | 172 kts | 37° |
| 2026-05-07 10:23 | 24.99144 | 102.82066 | 10096 ft | 174 kts | 37° |
| 2026-05-07 10:23 | 25.00104 | 102.82900 | 9888 ft | 175 kts | 37° |
| 2026-05-07 10:23 | 25.01047 | 102.83721 | 9649 ft | 170 kts | 37° |
| 2026-05-07 10:24 | 25.01970 | 102.84524 | 9441 ft | 169 kts | 37° |
| 2026-05-07 10:24 | 25.02895 | 102.85328 | 9233 ft | 169 kts | 37° |
| 2026-05-07 10:24 | 25.03813 | 102.86126 | 9007 ft | 167 kts | 37° |
| 2026-05-07 10:24 | 25.04739 | 102.86932 | 8533 ft | 173 kts | 38° |
| 2026-05-07 10:25 | 25.05657 | 102.87730 | 8183 ft | 161 kts | 37° |
| 2026-05-07 10:25 | 25.06510 | 102.88472 | 7980 ft | 158 kts | 38° |
| 2026-05-07 10:25 | 25.07370 | 102.89219 | 7747 ft | 156 kts | 38° |
| 2026-05-07 10:25 | 25.08219 | 102.89956 | 7508 ft | 152 kts | 38° |
| 2026-05-07 10:26 | 25.09025 | 102.90659 | 7288 ft | 148 kts | 38° |
| 2026-05-07 10:26 | 25.09844 | 102.91369 | 7070 ft | 151 kts | 37° |
| 2026-05-07 10:26 | 25.10657 | 102.92078 | 6932 ft | 145 kts | 38° |
| 2026-05-07 10:26 | 25.11386 | 102.92706 | 6904 ft | 118 kts | 38° |
| 2026-05-07 10:27 | 25.11866 | 102.93124 | 6900 ft | 38 kts | 39° |
| 2026-05-07 10:27 | 25.11958 | 102.93231 | 6899 ft | 17 kts | 50° |
| 2026-05-07 10:27 | 25.12010 | 102.93343 | 6898 ft | 15 kts | 65° |
| 2026-05-07 10:27 | 25.12005 | 102.93444 | 6899 ft | 14 kts | 146° |
| 2026-05-07 10:28 | 25.11917 | 102.93412 | 6899 ft | 14 kts | 217° |
| 2026-05-07 10:28 | 25.11843 | 102.93348 | 6900 ft | 13 kts | 218° |
| 2026-05-07 10:28 | 25.11772 | 102.93285 | 6900 ft | 13 kts | 219° |
| 2026-05-07 10:28 | 25.11695 | 102.93218 | 6901 ft | 15 kts | 218° |
| 2026-05-07 10:29 | 25.11610 | 102.93144 | 6901 ft | 16 kts | 218° |
| 2026-05-07 10:29 | 25.11521 | 102.93067 | 6902 ft | 16 kts | 218° |
| 2026-05-07 10:29 | 25.11435 | 102.92992 | 6902 ft | 16 kts | 219° |
| 2026-05-07 10:30 | 25.11273 | 102.92851 | 6903 ft | 14 kts | 218° |
| 2026-05-07 10:30 | 25.11196 | 102.92785 | 6904 ft | 14 kts | 217° |
| 2026-05-07 10:30 | 25.11124 | 102.92722 | 6909 ft | 13 kts | 218° |
| 2026-05-07 10:30 | 25.11049 | 102.92657 | 6904 ft | 15 kts | 217° |
| 2026-05-07 10:31 | 25.10956 | 102.92577 | 6905 ft | 19 kts | 218° |
| 2026-05-07 10:31 | 25.10849 | 102.92488 | 6904 ft | 19 kts | 219° |
| 2026-05-07 10:31 | 25.10757 | 102.92467 | 6913 ft | 13 kts | 138° |
| 2026-05-07 10:31 | 25.10701 | 102.92543 | 6908 ft | 13 kts | 130° |
| 2026-05-07 10:32 | 25.10631 | 102.92623 | 6917 ft | 16 kts | 141° |
| 2026-05-07 10:32 | 25.10527 | 102.92683 | 6903 ft | 12 kts | 154° |
| 2026-05-07 10:32 | 25.10470 | 102.92716 | 6903 ft | 5 kts | 138° |
| 2026-05-07 10:32 | 25.10468 | 102.92756 | 6903 ft | 7 kts | 72° |
| 2026-05-07 10:33 | 25.10489 | 102.92813 | 6902 ft | 6 kts | 70° |
| 2026-05-07 10:33 | 25.10502 | 102.92853 | 6902 ft | 5 kts | 69° |
| 2026-05-07 10:33 | 25.10506 | 102.92864 | 6902 ft | 0 kts | 69° |
| 2026-05-07 10:33 | 25.10507 | 102.92866 | 6902 ft | 0 kts | 69° |